Latest Weather Observations for Macquarie Island*

IDT60801

Issued at 8:31 pm EST Monday 31 August 2015 (issued every 30 minutes, with the page automatically refreshed every 10 minutes)

About weather observations | Map of weather stations | Latest weather observations for ANT | Other Formats
Station Details ID: 300004 Name: MACQUARIE ISLAND Lat: -54.50 Lon: 158.94 Height: 6.0 m
Data from the previous 72 hours. | See also: Recent months at Macquarie Island*
Date/Time
EST
Temp
°C
App
Temp
°C
Dew
Point
Rel
Hum
%
Delta-T
°C
Wind Press
QNH
hPa
Press
MSL
hPa
Rain
since 9 am
mm
Dir
 
Spd
km/h
Gust
km/h
Spd
kts
Gust
kts
31/08:30pm 0.4 -4.9 -0.4 94 0.3 NNW 17 19 9 10 1025.9 - 0.0
31/08:00pm 0.0 -4.6 -1.0 93 0.4 NNW 13 15 7 8 1026.3 - 0.0
31/07:30pm 0.2 -4.4 -0.8 93 0.4 NW 13 15 7 8 1026.6 - 0.0
31/07:00pm 0.1 -4.5 -1.0 92 0.4 NW 13 17 7 9 1026.9 - 0.0
31/06:30pm 0.0 -3.5 -1.3 91 0.5 W 7 13 4 7 1027.1 - 0.0
31/06:00pm 0.0 -3.9 -1.3 91 0.5 W 9 13 5 7 1027.2 1027.5 0.0
31/05:30pm 0.1 -3.4 -1.3 90 0.5 WSW 7 9 4 5 1027.5 - 0.0
31/05:00pm 0.1 -3.8 -1.3 90 0.5 W 9 13 5 7 1027.6 - 0.0
31/04:30pm 0.4 -3.1 -1.3 88 0.6 WSW 7 11 4 6 1027.9 - 0.0
31/04:00pm 0.7 -3.2 -1.2 87 0.7 W 9 17 5 9 1028.0 - 0.0
31/03:30pm 1.2 -3.0 -0.9 86 0.7 W 11 17 6 9 1028.2 - 0.0
31/03:00pm 2.2 -2.3 -0.1 85 0.8 W 13 17 7 9 1028.4 1028.7 0.0
31/02:30pm 2.4 -1.7 0.0 84 0.9 W 11 15 6 8 1028.4 - 0.0
31/02:00pm 1.9 -0.4 0.1 88 0.7 ESE 2 9 1 5 1028.8 - 0.0
31/01:30pm 1.8 -1.5 0.2 89 0.6 E 7 11 4 6 1028.9 - 0.0
31/01:00pm 1.8 -1.5 0.2 89 0.6 ESE 7 9 4 5 1029.0 - 0.0
31/12:30pm 1.8 -1.5 0.3 90 0.6 ESE 7 9 4 5 1029.3 - 0.0
31/12:00pm 1.5 -1.6 0.0 90 0.5 ENE 6 9 3 5 1029.5 1029.8 0.0
31/11:30am 1.4 -1.8 -0.2 89 0.6 S 6 7 3 4 1030.0 - 0.0
31/11:00am 1.3 -2.8 -0.5 88 0.6 SSE 11 15 6 8 1030.1 - 0.0
31/10:30am 1.8 -2.3 0.0 88 0.7 SE 11 15 6 8 1030.2 - 0.0
31/10:00am 1.4 -3.5 -0.4 88 0.6 SSE 15 19 8 10 1030.2 - 0.0
31/09:30am 1.0 -3.2 -0.6 89 0.6 SSE 11 15 6 8 1030.2 - 0.0
31/09:00am 0.9 -3.6 -0.5 90 0.5 S 13 17 7 9 1030.3 1030.6 0.0
31/08:30am 0.6 -4.0 -0.8 90 0.5 S 13 17 7 9 1030.3 - 0.0
31/08:00am 0.5 -3.7 -0.9 90 0.5 SSE 11 15 6 8 1030.2 - 0.0
31/07:30am 0.6 -3.2 -0.8 90 0.5 S 9 13 5 7 1030.2 - 0.0
31/07:00am 0.1 -3.4 -1.3 90 0.5 S 7 9 4 5 1030.1 - 0.0
31/06:30am -0.2 -2.4 -1.8 89 0.5 CALM 0 0 0 0 1029.8 - 0.0
31/06:00am 0.4 -3.5 -1.2 89 0.6 S 9 13 5 7 1030.0 1030.3 0.0
31/05:30am 0.7 -3.9 -0.7 90 0.5 S 13 20 7 11 1030.2 - 0.0
31/05:00am 0.8 -3.4 -0.6 90 0.5 S 11 19 6 10 1030.2 - 0.0
31/04:30am 0.9 -4.0 -0.4 91 0.5 S 15 20 8 11 1029.9 - 0.0
31/04:00am 1.0 -3.5 -0.3 91 0.5 S 13 20 7 11 1029.7 - 0.0
31/03:30am 1.0 -3.1 -0.3 91 0.5 S 11 17 6 9 1029.7 - 0.0
31/03:00am 1.1 -2.2 -0.2 91 0.5 SW 7 13 4 7 1029.7 1030.0 0.0
31/02:30am 1.1 -2.2 -0.2 91 0.5 W 7 11 4 6 1029.7 - 0.0
31/02:00am 1.1 -0.9 -0.2 91 0.5 CALM 0 0 0 0 1029.8 - 0.0
31/01:30am 1.1 -2.2 -0.2 91 0.5 SSW 7 17 4 9 1030.2 - 0.0
31/01:00am 0.9 -3.2 -0.4 91 0.5 SSW 11 15 6 8 1030.3 - 0.0
31/12:30am 0.8 -3.7 -0.5 91 0.5 WSW 13 20 7 11 1030.1 - 0.0
31/12:00am 0.9 -1.5 -0.4 91 0.5 SE 2 11 1 6 1030.3 1030.6 0.0
 
Date/Time
EST
Temp
°C
App
Temp
°C
Dew
Point
Rel
Hum
%
Delta-T
°C
Wind Press
QNH
hPa
Press
MSL
hPa
Rain
since 9 am
mm
Dir
 
Spd
km/h
Gust
km/h
Spd
kts
Gust
kts
30/11:30pm 0.9 -2.5 -0.5 90 0.5 S 7 13 4 7 1030.3 - 0.0
30/11:00pm 0.8 -2.6 -0.6 90 0.5 SSW 7 11 4 6 1030.1 - 0.0
30/10:30pm 0.9 -2.5 -0.5 90 0.5 SW 7 13 4 7 1030.2 - 0.0
30/10:00pm 0.9 -2.5 -0.7 89 0.6 W 7 11 4 6 1030.2 - 0.0
30/09:30pm 1.2 -1.6 -0.6 88 0.6 SSW 4 11 2 6 1030.2 - 0.0
30/09:00pm 1.4 -2.7 -0.4 88 0.6 SSE 11 20 6 11 1030.3 1030.6 0.0
30/08:30pm 1.4 -2.4 -0.4 88 0.6 SSE 9 13 5 7 1030.3 - 0.0
30/08:00pm 1.5 -2.2 -0.3 88 0.7 S 9 17 5 9 1030.3 - 0.0
30/07:30pm 1.6 -2.1 -0.2 88 0.7 S 9 11 5 6 1030.0 - 0.0
30/07:00pm 1.4 -2.7 -0.5 87 0.7 S 11 17 6 9 1029.9 - 0.0
30/06:30pm 1.6 -2.5 -0.3 87 0.7 S 11 20 6 11 1029.7 - 0.0
30/06:00pm 1.6 -2.5 -0.3 87 0.7 S 11 17 6 9 1029.4 1029.7 0.0
30/05:30pm 1.5 -2.6 -0.3 88 0.7 S 11 15 6 8 1029.3 - 0.0
30/05:00pm 1.4 -2.4 -0.5 87 0.7 SW 9 15 5 8 1029.3 - 0.0
30/04:30pm 1.7 -2.8 -0.2 87 0.7 SW 13 20 7 11 1029.2 - 0.0
30/04:00pm 1.8 -2.3 -0.1 87 0.7 SW 11 17 6 9 1029.0 - 0.0
30/03:30pm 2.1 -3.1 0.2 87 0.7 S 17 26 9 14 1028.8 - 0.0
30/03:00pm 2.2 -1.8 0.3 87 0.7 S 11 17 6 9 1028.6 1028.9 0.0
30/02:30pm 2.4 -1.6 0.3 86 0.8 SW 11 17 6 9 1028.5 - 0.0
30/02:00pm 2.6 -1.0 0.5 86 0.8 SSW 9 17 5 9 1028.4 - 0.0
30/01:30pm 2.7 -0.5 0.8 87 0.7 SW 7 13 4 7 1028.3 - 0.0
30/01:00pm 3.0 -0.1 1.1 87 0.7 S 7 11 4 6 1028.3 - 0.0
30/12:30pm 2.5 -0.1 0.7 88 0.7 ESE 4 9 2 5 1028.4 - 0.0
30/12:00pm 2.7 -0.9 0.9 88 0.7 SW 9 17 5 9 1028.5 1028.8 0.0
30/11:30am 2.6 0.0 1.0 89 0.6 SE 4 9 2 5 1028.6 - 0.0
30/11:00am 2.3 -1.7 0.5 88 0.7 S 11 20 6 11 1028.6 - 0.0
30/10:30am 2.3 -2.0 0.7 89 0.6 S 13 20 7 11 1028.5 - 0.0
30/10:00am 2.2 -1.8 0.6 89 0.6 S 11 20 6 11 1028.5 - 0.0
30/09:30am 2.1 -1.5 0.6 90 0.6 SSW 9 15 5 8 1028.4 - 0.0
30/09:00am 1.9 -2.1 0.6 91 0.5 S 11 17 6 9 1028.3 1028.6 0.2
30/08:30am 1.5 -2.5 0.2 91 0.5 SSW 11 20 6 11 1028.0 - 0.2
30/08:00am 1.3 -2.8 0.0 91 0.5 S 11 20 6 11 1027.8 - 0.2
30/07:30am 0.9 -4.8 -0.4 91 0.5 WSW 19 22 10 12 1027.7 - 0.2
30/07:00am 0.9 -4.8 -0.4 91 0.5 SW 19 28 10 15 1027.4 - 0.0
30/06:30am 0.8 -5.4 -0.5 91 0.5 WSW 22 28 12 15 1027.3 - 0.0
30/06:00am 0.8 -5.8 -0.5 91 0.5 SW 24 30 13 16 1027.1 1027.4 0.0
30/05:30am 0.7 -5.9 -0.6 91 0.5 WSW 24 32 13 17 1026.8 - 0.0
30/05:00am 0.7 -5.9 -0.7 90 0.5 WSW 24 32 13 17 1026.4 - 0.0
30/04:30am 0.9 -6.5 -1.0 87 0.7 WSW 28 32 15 17 1026.2 - 0.0
30/04:00am 1.1 -2.7 -0.7 88 0.6 S 9 15 5 8 1025.9 - 0.0
30/03:30am 0.8 -5.4 -0.6 90 0.5 SW 22 32 12 17 1026.0 - 0.0
30/03:00am 0.9 -5.3 -0.5 90 0.5 SW 22 30 12 16 1026.0 1026.3 0.0
30/02:30am 1.0 -4.3 -0.5 90 0.5 SSW 17 30 9 16 1025.8 - 0.0
30/02:00am 1.0 -3.5 -0.6 89 0.6 SSW 13 20 7 11 1025.9 - 0.0
30/01:30am 1.2 -3.7 -0.4 89 0.6 SSW 15 30 8 16 1026.2 - 0.0
30/01:00am 1.4 -3.1 -0.4 88 0.6 SW 13 24 7 13 1026.2 - 0.0
30/12:30am 1.4 -2.4 -0.4 88 0.6 SSW 9 20 5 11 1026.2 - 0.0
30/12:00am 1.3 -3.6 -0.5 88 0.6 SW 15 26 8 14 1026.1 1026.4 0.0
 
Date/Time
EST
Temp
°C
App
Temp
°C
Dew
Point
Rel
Hum
%
Delta-T
°C
Wind Press
QNH
hPa
Press
MSL
hPa
Rain
since 9 am
mm
Dir
 
Spd
km/h
Gust
km/h
Spd
kts
Gust
kts
29/11:30pm 1.3 -3.6 -0.6 87 0.7 SW 15 22 8 12 1025.9 - 0.0
29/11:00pm 1.3 -1.5 -0.6 87 0.7 SW 4 11 2 6 1025.8 - 0.0
29/10:30pm 1.7 -2.8 -0.2 87 0.7 S 13 19 7 10 1025.7 - 0.0
29/10:00pm 1.9 -2.2 0.1 88 0.7 S 11 17 6 9 1025.7 - 0.0
29/09:30pm 1.6 -3.6 0.0 89 0.6 SSW 17 24 9 13 1025.5 - 0.0
29/09:00pm 1.9 -3.3 0.4 90 0.6 SSW 17 26 9 14 1025.4 1025.7 0.0
29/08:30pm 1.6 -2.8 0.1 90 0.5 SSW 13 22 7 12 1025.3 - 0.0
29/08:00pm 1.6 -2.8 0.3 91 0.5 S 13 17 7 9 1025.0 - 0.0
29/07:30pm 1.4 -3.4 0.1 91 0.5 SSW 15 22 8 12 1024.8 - 0.0
29/07:00pm 1.2 -3.3 -0.3 90 0.5 SSW 13 20 7 11 1024.7 - 0.0
29/06:30pm 1.2 -3.7 -0.3 90 0.5 SW 15 26 8 14 1024.5 - 0.0
29/06:00pm 1.3 -3.2 -0.5 88 0.6 SW 13 22 7 12 1024.4 1024.7 0.0
29/05:30pm 1.4 -2.7 -0.5 87 0.7 SSW 11 17 6 9 1023.9 - 0.0
29/05:00pm 1.8 -3.8 -0.3 86 0.8 S 19 26 10 14 1023.9 - 0.0
29/04:30pm 2.1 -3.5 0.2 87 0.7 SSW 19 26 10 14 1023.8 - 0.0
29/04:00pm 2.3 -3.3 0.2 86 0.8 SSW 19 28 10 15 1023.5 - 0.0
29/03:30pm 2.3 -3.5 0.2 86 0.8 SSW 20 35 11 19 1023.2 - 0.0
29/03:00pm 2.4 -2.7 0.8 89 0.6 SSW 17 24 9 13 1023.2 1023.5 0.0
29/02:30pm 2.1 -2.3 0.6 90 0.6 SW 13 22 7 12 1023.3 - 0.0
29/02:00pm 2.0 -3.5 0.5 90 0.6 S 19 26 10 14 1023.4 - 0.0
29/01:30pm 2.1 -2.3 0.6 90 0.6 SW 13 24 7 13 1023.1 - 0.0
29/01:00pm 1.9 -2.9 0.4 90 0.6 SSW 15 30 8 16 1023.0 - 0.0
29/12:30pm 1.8 -3.0 0.3 90 0.6 S 15 28 8 15 1023.0 - 0.0
29/12:00pm 1.9 -3.3 0.4 90 0.6 W 17 24 9 13 1023.2 1023.5 0.0
29/11:40am 2.0 -6.0 0.5 90 0.6 W 32 50 17 27 1023.0 - 0.0
29/11:30am 1.9 -5.7 0.4 90 0.6 W 30 41 16 22 1023.1 - 0.0
29/11:00am 1.8 -6.2 0.5 91 0.5 W 32 48 17 26 1023.3 - 0.0
29/10:30am 1.9 -6.6 0.6 91 0.5 W 35 52 19 28 1023.2 - 0.0
29/10:00am 1.9 -7.4 0.6 91 0.5 W 39 54 21 29 1023.2 - 0.0
29/09:45am 1.6 -7.8 0.1 90 0.5 W 39 57 21 31 1023.0 - 0.0
29/09:30am 1.6 -8.5 0.3 91 0.5 W 43 52 23 28 1023.0 - 0.0
29/09:00am 1.5 -8.2 0.2 91 0.5 W 41 56 22 30 1023.0 1023.3 0.2
29/08:36am 1.3 -7.7 0.1 92 0.4 W 37 56 20 30 1022.9 - 0.2
29/08:30am 1.2 -8.2 -0.1 91 0.5 W 39 56 21 30 1023.0 - 0.2
29/08:00am 1.3 -8.5 0.1 92 0.4 W 41 54 22 29 1022.6 - 0.2
29/07:30am 1.2 -7.8 -0.1 91 0.5 WSW 37 52 20 28 1022.5 - 0.2
29/07:13am 1.1 -7.9 -0.2 91 0.5 WSW 37 56 20 30 1022.4 - 0.2
29/07:00am 1.1 -8.3 -0.2 91 0.5 WSW 39 54 21 29 1022.4 - 0.2
29/06:36am 1.1 -8.4 -0.4 90 0.5 WSW 39 57 21 31 1022.2 - 0.2
29/06:30am 1.2 -9.2 -0.3 90 0.5 WSW 44 57 24 31 1022.3 - 0.2
29/06:08am 1.2 -6.5 -0.1 91 0.5 SW 30 50 16 27 1022.4 - 0.2
29/06:00am 1.3 -4.9 0.0 91 0.5 SW 22 35 12 19 1022.7 1023.0 0.2
29/05:54am 1.2 -5.7 -0.1 91 0.5 SSW 26 35 14 19 1022.7 - 0.2
29/05:37am 1.2 -8.2 -0.3 90 0.5 WSW 39 57 21 31 1022.2 - 0.2
29/05:30am 1.4 -8.8 -0.1 90 0.5 WSW 43 56 23 30 1022.0 - 0.2
29/05:00am 1.4 -9.7 -0.1 90 0.5 WSW 48 67 26 36 1021.4 - 0.2
29/04:30am 1.6 -10.3 0.0 89 0.6 WSW 52 70 28 38 1021.5 - 0.2
29/04:25am 1.7 -10.1 0.1 89 0.6 WSW 52 70 28 38 1021.4 - 0.2
29/04:00am 1.9 -9.6 0.1 88 0.7 W 50 65 27 35 1021.6 - 0.2
29/03:30am 1.9 -8.4 0.1 88 0.7 W 44 65 24 35 1022.0 - 0.2
29/03:15am 2.0 -9.1 0.1 87 0.7 W 48 67 26 36 1022.0 - 0.2
29/03:00am 2.1 -9.4 0.2 87 0.7 W 50 65 27 35 1022.2 1022.5 0.2
29/02:36am 2.2 -9.3 0.1 86 0.8 W 50 69 27 37 1022.1 - 0.2
29/02:30am 2.1 -10.2 -0.2 85 0.8 W 54 69 29 37 1022.0 - 0.2
29/02:00am 2.3 -9.6 -0.1 84 0.9 W 52 69 28 37 1022.3 - 0.2
29/01:30am 2.4 -10.2 0.1 85 0.8 W 56 67 30 36 1022.2 - 0.2
29/01:00am 2.7 -9.6 -0.4 80 1.1 W 54 67 29 36 1022.2 - 0.2
29/12:30am 2.6 -8.5 -0.2 82 1.0 W 48 61 26 33 1022.3 - 0.2
29/12:00am 2.5 -8.6 0.1 84 0.9 W 48 59 26 32 1022.4 1022.7 0.2
 
Date/Time
EST
Temp
°C
App
Temp
°C
Dew
Point
Rel
Hum
%
Delta-T
°C
Wind Press
QNH
hPa
Press
MSL
hPa
Rain
since 9 am
mm
Dir
 
Spd
km/h
Gust
km/h
Spd
kts
Gust
kts
28/11:30pm 2.5 -9.4 -0.4 81 1.1 W 52 65 28 35 1022.3 - 0.0
28/11:19pm 2.9 -9.4 -0.5 78 1.2 W 54 72 29 39 1022.4 - 0.0
28/11:00pm 3.0 -9.3 -0.5 78 1.3 W 54 65 29 35 1022.0 - 0.0
28/10:30pm 3.3 -7.6 -0.9 74 1.5 W 46 59 25 32 1022.8 - 0.0
28/10:00pm 3.3 -6.8 -2.2 67 1.9 W 41 57 22 31 1023.1 - 0.0
28/09:30pm 3.2 -7.1 -1.2 73 1.6 W 43 54 23 29 1023.0 - 0.0
28/09:00pm 2.9 -7.0 -0.7 77 1.3 W 41 48 22 26 1023.0 1023.3 0.0

Other Formats:

Comma delimited format used in spreadsheet applications
http://www.bom.gov.au/fwo/IDT60803/IDT60803.94998.axf

JavaScript Object Notation format (JSON) in row-major order
http://www.bom.gov.au/fwo/IDT60803/IDT60803.94998.json